Time;durP1;ratioP1;P1;durP2;ratioP2;P2;SDS_P1;SDS_P2;PMS_P1;PMS_P2;Temp;Humidity;BMP_temperature;BMP_pressure;BME280_temperature;BME280_humidity;BME280_pressure;Samples;Min_cycle;Max_cycle;Signal;HPM_P1;HPM_P2
2022/03/19 00:01:28;;;;;;;;;;;;;;;;;;5017543;28;19918;-48
2022/03/19 00:03:54;;;;;;;;;;;;;;;;;;5017116;28;20365;-48
2022/03/19 00:06:19;;;;;;;;;;;;;;;;;;5017350;28;19909;-49
2022/03/19 00:08:44;;;;;;;;;;;;;;;;;;5017444;28;19909;-50
2022/03/19 00:11:09;;;;;;;;;;;;;;;;;;5017289;28;20284;-47
2022/03/19 00:13:34;;;;;;;;;;;;;;;;;;5017171;28;19945;-47
2022/03/19 00:15:59;;;;;;;;;;;;;;;;;;5017148;28;19916;-48
2022/03/19 00:18:24;;;;;;;;;;;;;;;;;;5017184;28;20269;-48
2022/03/19 00:20:50;;;;;;;;;;;;;;;;;;5017372;28;19910;-48
2022/03/19 00:23:15;;;;;;;;;;;;;;;;;;5017086;28;20297;-47
2022/03/19 00:25:40;;;;;;;;;;;;;;;;;;5015471;28;19913;-48
2022/03/19 00:28:05;;;;;;;;;;;;;;;;;;5016231;28;19920;-47
2022/03/19 00:30:30;;;;;;;;;;;;;;;;;;5016841;28;19909;-48
2022/03/19 00:32:56;;;;;;;;;;;;;;;;;;5016828;28;19917;-48
2022/03/19 00:35:21;;;;;;;;;;;;;;;;;;5016645;28;20349;-49
2022/03/19 00:37:46;;;;;;;;;;;;;;;;;;5016416;28;20276;-51
2022/03/19 00:40:11;;;;;;;;;;;;;;;;;;5016648;28;20368;-48
2022/03/19 00:42:36;;;;;;;;;;;;;;;;;;5016473;28;19910;-48
2022/03/19 00:45:01;;;;;;;;;;;;;;;;;;5016319;28;19914;-48
2022/03/19 00:47:27;;;;;;;;;;;;;;;;;;5016491;28;19915;-49
2022/03/19 00:49:52;;;;;;;;;;;;;;;;;;5032195;23;20020;-48
2022/03/19 00:52:17;;;;;;;;;;;;;;;;;;5036176;28;19909;-48
2022/03/19 00:54:42;;;;;;;;;;;;;;;;;;5035297;28;19967;-50
2022/03/19 00:57:07;;;;;;;;;;;;;;;;;;5034893;28;19913;-48
2022/03/19 00:59:32;;;;;;;;;;;;;;;;;;5035173;28;19913;-48
2022/03/19 01:01:57;;;;;;;;;;;;;;;;;;5035918;28;20322;-48
2022/03/19 01:04:23;;;;;;;;;;;;;;;;;;5035698;28;19971;-51
2022/03/19 01:06:48;;;;;;;;;;;;;;;;;;5035975;28;19916;-50
2022/03/19 01:09:13;;;;;;;;;;;;;;;;;;5051292;28;19955;-50
2022/03/19 01:11:38;;;;;;;;;;;;;;;;;;5035970;28;19963;-49
2022/03/19 01:14:03;;;;;;;;;;;;;;;;;;5035772;28;20323;-48
2022/03/19 01:16:28;;;;;;;;;;;;;;;;;;5035654;28;19946;-49
2022/03/19 01:18:53;;;;;;;;;;;;;;;;;;5035615;28;19913;-49
2022/03/19 01:21:18;;;;;;;;;;;;;;;;;;5035783;28;19963;-50
2022/03/19 01:23:43;;;;;;;;;;;;;;;;;;5035496;28;19913;-47
2022/03/19 01:26:09;;;;;;;;;;;;;;;;;;5034619;28;19913;-48
2022/03/19 01:28:34;;;;;;;;;;;;;;;;;;5035520;28;19909;-50
2022/03/19 01:30:59;;;;;;;;;;;;;;;;;;5035415;28;19909;-48
2022/03/19 01:33:24;;;;;;;;;;;;;;;;;;5035340;28;19958;-48
2022/03/19 01:35:49;;;;;;;;;;;;;;;;;;5035262;28;19960;-48
2022/03/19 01:38:14;;;;;;;;;;;;;;;;;;5035221;28;20011;-47
2022/03/19 01:40:39;;;;;;;;;;;;;;;;;;5035131;28;20020;-48
2022/03/19 01:43:04;;;;;;;;;;;;;;;;;;5035462;28;20364;-47
2022/03/19 01:45:29;;;;;;;;;;;;;;;;;;5035111;28;20004;-47
2022/03/19 01:47:55;;;;;;;;;;;;;;;;;;5035172;28;19910;-48
2022/03/19 01:50:20;;;;;;;;;;;;;;;;;;5034960;28;19927;-48
2022/03/19 01:52:45;;;;;;;;;;;;;;;;;;5035018;28;20379;-48
2022/03/19 01:55:10;;;;;;;;;;;;;;;;;;5034030;28;19913;-47
2022/03/19 01:57:37;;;;;;;;;;;;;;;;;;5035074;28;19965;-48
2022/03/19 02:00:03;;;;;;;;;;;;;;;;;;5035006;28;19909;-48
2022/03/19 02:02:28;;;;;;;;;;;;;;;;;;5034809;28;19913;-48
2022/03/19 02:04:53;;;;;;;;;;;;;;;;;;5015189;28;19921;-48
2022/03/19 02:07:18;;;;;;;;;;;;;;;;;;5015056;28;19914;-48
2022/03/19 02:09:43;;;;;;;;;;;;;;;;;;5014904;28;20383;-48
2022/03/19 02:12:08;;;;;;;;;;;;;;;;;;5015161;28;19956;-48
2022/03/19 02:14:33;;;;;;;;;;;;;;;;;;5015105;28;19996;-50
2022/03/19 02:16:59;;;;;;;;;;;;;;;;;;5015161;28;19913;-50
2022/03/19 02:19:24;;;;;;;;;;;;;;;;;;5014957;28;19917;-47
2022/03/19 02:21:49;;;;;;;;;;;;;;;;;;5014843;28;19913;-48
2022/03/19 02:26:58;;;;;;;;;;;;;;;;;;5033932;28;20395;-47
2022/03/19 02:29:23;;;;;;;;;;;;;;;;;;5034620;28;19913;-48
2022/03/19 02:31:49;;;;;;;;;;;;;;;;;;5034689;28;19920;-47
2022/03/19 02:34:14;;;;;;;;;;;;;;;;;;5034626;28;19913;-49
2022/03/19 02:36:42;;;;;;;;;;;;;;;;;;5034509;28;19959;-48
2022/03/19 02:39:07;;;;;;;;;;;;;;;;;;5034331;28;19909;-49
2022/03/19 02:41:33;;;;;;;;;;;;;;;;;;5034455;28;19909;-48
2022/03/19 02:43:58;;;;;;;;;;;;;;;;;;5034399;28;19967;-48
2022/03/19 02:46:23;;;;;;;;;;;;;;;;;;5034412;28;19917;-47
2022/03/19 02:48:48;;;;;;;;;;;;;;;;;;5034335;28;20295;-47
2022/03/19 02:51:13;;;;;;;;;;;;;;;;;;5034052;28;19921;-47
2022/03/19 02:53:38;;;;;;;;;;;;;;;;;;5034372;28;19913;-52
2022/03/19 02:56:03;;;;;;;;;;;;;;;;;;5033479;28;19917;-50
2022/03/19 02:58:29;;;;;;;;;;;;;;;;;;5049642;28;19910;-49
2022/03/19 03:00:54;;;;;;;;;;;;;;;;;;5034112;28;19909;-50
2022/03/19 03:03:19;;;;;;;;;;;;;;;;;;5034147;28;19909;-48
2022/03/19 03:05:45;;;;;;;;;;;;;;;;;;5034262;28;19909;-47
2022/03/19 03:08:10;;;;;;;;;;;;;;;;;;5034258;28;19996;-50
2022/03/19 03:10:35;;;;;;;;;;;;;;;;;;5034132;28;19913;-50
2022/03/19 03:13:00;;;;;;;;;;;;;;;;;;5034058;28;19955;-48
2022/03/19 03:15:25;;;;;;;;;;;;;;;;;;5033990;28;19962;-50
2022/03/19 03:17:50;;;;;;;;;;;;;;;;;;5034029;28;19909;-48
2022/03/19 03:20:15;;;;;;;;;;;;;;;;;;5032733;28;19909;-48
2022/03/19 03:22:42;;;;;;;;;;;;;;;;;;5037453;28;20003;-49
2022/03/19 03:25:07;;;;;;;;;;;;;;;;;;5036863;28;20383;-48
2022/03/19 03:27:32;;;;;;;;;;;;;;;;;;5037680;28;19909;-48
2022/03/19 03:29:57;;;;;;;;;;;;;;;;;;5037696;28;20318;-48
2022/03/19 03:32:23;;;;;;;;;;;;;;;;;;5037589;28;19909;-48
2022/03/19 03:34:48;;;;;;;;;;;;;;;;;;5037324;28;19917;-49
2022/03/19 03:37:13;;;;;;;;;;;;;;;;;;5037678;28;19924;-49
2022/03/19 03:39:38;;;;;;;;;;;;;;;;;;5037410;28;19909;-48
2022/03/19 03:42:03;;;;;;;;;;;;;;;;;;5037519;28;20279;-48
2022/03/19 03:44:28;;;;;;;;;;;;;;;;;;5037267;28;19924;-47
2022/03/19 03:46:53;;;;;;;;;;;;;;;;;;5037582;28;19920;-50
2022/03/19 03:49:18;;;;;;;;;;;;;;;;;;5037178;28;19909;-48
2022/03/19 03:51:44;;;;;;;;;;;;;;;;;;5037465;28;19923;-49
2022/03/19 03:54:09;;;;;;;;;;;;;;;;;;5037188;28;20267;-50
2022/03/19 03:56:34;;;;;;;;;;;;;;;;;;5036213;28;20007;-49
2022/03/19 03:58:59;;;;;;;;;;;;;;;;;;5037006;28;19999;-48
2022/03/19 04:01:24;;;;;;;;;;;;;;;;;;5037046;28;20004;-48
2022/03/19 04:03:49;;;;;;;;;;;;;;;;;;5025848;28;19913;-47
2022/03/19 04:06:14;;;;;;;;;;;;;;;;;;5017477;28;20365;-48
2022/03/19 04:08:40;;;;;;;;;;;;;;;;;;5017323;28;19944;-48
2022/03/19 04:11:05;;;;;;;;;;;;;;;;;;5017222;28;19952;-50
2022/03/19 04:13:30;;;;;;;;;;;;;;;;;;5017035;28;19948;-48
2022/03/19 04:15:55;;;;;;;;;;;;;;;;;;5017084;28;19948;-48
2022/03/19 04:18:20;;;;;;;;;;;;;;;;;;5017180;28;19957;-48
2022/03/19 04:20:45;;;;;;;;;;;;;;;;;;5016868;28;19945;-48
2022/03/19 04:23:10;;;;;;;;;;;;;;;;;;5017027;28;19910;-49
2022/03/19 04:25:36;;;;;;;;;;;;;;;;;;5024346;28;21713;-49
2022/03/19 04:28:01;;;;;;;;;;;;;;;;;;5036279;28;19919;-50
2022/03/19 04:30:27;;;;;;;;;;;;;;;;;;5036530;28;19920;-49
2022/03/19 04:32:52;;;;;;;;;;;;;;;;;;5035115;28;19921;-51
2022/03/19 04:38:01;;;;;;;;;;;;;;;;;;5036577;28;19924;-50
2022/03/19 04:40:26;;;;;;;;;;;;;;;;;;5036490;28;19909;-48
2022/03/19 04:42:51;;;;;;;;;;;;;;;;;;5036351;28;19913;-50
2022/03/19 04:45:17;;;;;;;;;;;;;;;;;;5035819;28;19913;-50
2022/03/19 04:47:42;;;;;;;;;;;;;;;;;;5035488;28;19913;-49
2022/03/19 04:50:07;;;;;;;;;;;;;;;;;;5035883;28;19987;-49
2022/03/19 04:52:32;;;;;;;;;;;;;;;;;;5036186;28;19963;-49
2022/03/19 04:55:00;;;;;;;;;;;;;;;;;;5036388;28;19931;-49
2022/03/19 04:57:25;;;;;;;;;;;;;;;;;;5035373;28;19920;-51
2022/03/19 04:59:50;;;;;;;;;;;;;;;;;;5035975;28;20360;-48
2022/03/19 05:02:16;;;;;;;;;;;;;;;;;;5035886;28;19916;-49
2022/03/19 05:04:41;;;;;;;;;;;;;;;;;;5016634;28;19921;-50
2022/03/19 05:07:06;;;;;;;;;;;;;;;;;;5016157;28;20044;-48
2022/03/19 05:12:15;;;;;;;;;;;;;;;;;;5016200;28;20430;-48
2022/03/19 05:14:40;;;;;;;;;;;;;;;;;;5015960;28;19976;-50
2022/03/19 05:17:06;;;;;;;;;;;;;;;;;;5016074;28;19941;-48
2022/03/19 05:19:31;;;;;;;;;;;;;;;;;;5016032;28;19914;-48
2022/03/19 05:21:56;;;;;;;;;;;;;;;;;;5015783;28;19917;-49
2022/03/19 05:24:21;;;;;;;;;;;;;;;;;;5015615;28;19913;-48
2022/03/19 05:26:46;;;;;;;;;;;;;;;;;;5033375;28;19949;-48
2022/03/19 05:29:12;;;;;;;;;;;;;;;;;;5035356;28;19960;-48
2022/03/19 05:31:37;;;;;;;;;;;;;;;;;;5035485;28;19951;-48
2022/03/19 05:36:46;;;;;;;;;;;;;;;;;;5035268;28;20019;-49
2022/03/19 05:39:11;;;;;;;;;;;;;;;;;;5035284;28;20394;-48
2022/03/19 05:41:36;;;;;;;;;;;;;;;;;;5035306;28;19992;-50
2022/03/19 05:44:01;;;;;;;;;;;;;;;;;;5034633;28;20033;-49
2022/03/19 05:46:26;;;;;;;;;;;;;;;;;;5035131;28;19995;-48
2022/03/19 05:48:51;;;;;;;;;;;;;;;;;;5035665;28;20007;-48
2022/03/19 05:51:18;;;;;;;;;;;;;;;;;;5033964;28;21315;-48
2022/03/19 05:53:44;;;;;;;;;;;;;;;;;;5035236;28;20292;-49
2022/03/19 05:56:09;;;;;;;;;;;;;;;;;;5034595;28;19913;-49
2022/03/19 05:58:34;;;;;;;;;;;;;;;;;;5035032;28;19949;-48
2022/03/19 06:00:59;;;;;;;;;;;;;;;;;;5035155;28;19916;-48
2022/03/19 06:03:24;;;;;;;;;;;;;;;;;;5027313;28;19948;-48
2022/03/19 06:05:49;;;;;;;;;;;;;;;;;;5015481;28;19910;-48
2022/03/19 06:08:14;;;;;;;;;;;;;;;;;;5035006;28;19910;-48
2022/03/19 06:10:39;;;;;;;;;;;;;;;;;;5034698;28;19909;-48
2022/03/19 06:13:05;;;;;;;;;;;;;;;;;;5034834;28;19909;-49
2022/03/19 06:15:30;;;;;;;;;;;;;;;;;;5034618;28;19913;-50
2022/03/19 06:17:55;;;;;;;;;;;;;;;;;;5034718;28;19964;-50
2022/03/19 06:20:22;;;;;;;;;;;;;;;;;;5034713;28;19909;-51
2022/03/19 06:22:48;;;;;;;;;;;;;;;;;;5034345;28;19919;-48
2022/03/19 06:25:14;;;;;;;;;;;;;;;;;;5033896;28;19928;-49
2022/03/19 06:27:39;;;;;;;;;;;;;;;;;;5033938;28;19939;-50
2022/03/19 06:30:04;;;;;;;;;;;;;;;;;;5034587;28;19913;-48
2022/03/19 06:32:29;;;;;;;;;;;;;;;;;;5034493;28;19913;-48
2022/03/19 06:34:54;;;;;;;;;;;;;;;;;;5034633;28;19909;-48
2022/03/19 06:37:19;;;;;;;;;;;;;;;;;;5034326;28;19917;-50
2022/03/19 06:39:44;;;;;;;;;;;;;;;;;;5034724;28;19913;-48
2022/03/19 06:42:09;;;;;;;;;;;;;;;;;;5034400;28;19917;-51
2022/03/19 06:44:35;;;;;;;;;;;;;;;;;;5034279;28;20422;-49
2022/03/19 06:47:00;;;;;;;;;;;;;;;;;;5034311;28;19957;-49
2022/03/19 06:49:27;;;;;;;;;;;;;;;;;;5034032;28;20292;-50
2022/03/19 06:51:52;;;;;;;;;;;;;;;;;;5034143;28;20432;-48
2022/03/19 06:54:17;;;;;;;;;;;;;;;;;;5034304;28;19917;-49
2022/03/19 06:56:42;;;;;;;;;;;;;;;;;;5035575;28;19916;-49
2022/03/19 06:59:07;;;;;;;;;;;;;;;;;;5038052;28;19913;-49
2022/03/19 07:01:36;;;;;;;;;;;;;;;;;;5038266;28;19909;-49
2022/03/19 07:04:01;;;;;;;;;;;;;;;;;;5025466;28;19959;-49
2022/03/19 07:06:26;;;;;;;;;;;;;;;;;;5018280;28;20004;-49
2022/03/19 07:08:51;;;;;;;;;;;;;;;;;;5018317;28;20295;-49
2022/03/19 07:11:16;;;;;;;;;;;;;;;;;;5018333;28;19917;-48
2022/03/19 07:13:42;;;;;;;;;;;;;;;;;;5018229;28;20391;-49
2022/03/19 07:16:07;;;;;;;;;;;;;;;;;;5036143;28;20385;-49
2022/03/19 07:18:32;;;;;;;;;;;;;;;;;;5037884;28;19975;-48
2022/03/19 07:20:57;;;;;;;;;;;;;;;;;;5037589;28;19917;-49
2022/03/19 07:23:22;;;;;;;;;;;;;;;;;;5037133;28;19917;-49
2022/03/19 07:25:47;;;;;;;;;;;;;;;;;;5037552;28;19925;-49
2022/03/19 07:28:12;;;;;;;;;;;;;;;;;;5037671;28;19909;-49
2022/03/19 07:30:37;;;;;;;;;;;;;;;;;;5037898;28;20315;-49
2022/03/19 07:33:02;;;;;;;;;;;;;;;;;;5037712;28;20352;-49
2022/03/19 07:35:28;;;;;;;;;;;;;;;;;;5037625;28;19914;-49
2022/03/19 07:37:53;;;;;;;;;;;;;;;;;;5037238;28;19920;-48
2022/03/19 07:41:45;;;;;;;;;;;;;;;;;;5037380;28;20311;-49
2022/03/19 07:43:03;;;;;;;;;;;;;;;;;;5037519;28;19919;-49
2022/03/19 07:45:30;;;;;;;;;;;;;;;;;;5037443;28;20275;-50
2022/03/19 07:47:55;;;;;;;;;;;;;;;;;;5037307;28;19916;-51
2022/03/19 07:50:20;;;;;;;;;;;;;;;;;;5037063;28;19921;-49
2022/03/19 07:52:47;;;;;;;;;;;;;;;;;;5036932;28;19913;-50
2022/03/19 07:55:12;;;;;;;;;;;;;;;;;;5037244;28;19916;-49
2022/03/19 07:57:37;;;;;;;;;;;;;;;;;;5036738;28;20007;-50
2022/03/19 08:00:02;;;;;;;;;;;;;;;;;;5037139;28;19952;-49
2022/03/19 08:02:27;;;;;;;;;;;;;;;;;;5037028;28;19954;-49
2022/03/19 08:04:53;;;;;;;;;;;;;;;;;;5036783;28;20353;-49
2022/03/19 08:07:19;;;;;;;;;;;;;;;;;;5036064;28;19986;-49
2022/03/19 08:09:44;;;;;;;;;;;;;;;;;;5036747;28;19913;-51
2022/03/19 08:12:10;;;;;;;;;;;;;;;;;;5036866;28;19909;-49
2022/03/19 08:14:35;;;;;;;;;;;;;;;;;;5036673;28;20007;-51
2022/03/19 08:17:00;;;;;;;;;;;;;;;;;;5035420;28;19909;-50
2022/03/19 08:19:25;;;;;;;;;;;;;;;;;;5036826;28;19909;-51
2022/03/19 08:21:52;;;;;;;;;;;;;;;;;;5036734;28;19913;-49
2022/03/19 08:24:17;;;;;;;;;;;;;;;;;;5035793;28;19944;-49
2022/03/19 08:26:44;;;;;;;;;;;;;;;;;;5035888;28;19913;-49
2022/03/19 08:29:09;;;;;;;;;;;;;;;;;;5036605;28;19909;-52
2022/03/19 08:31:34;;;;;;;;;;;;;;;;;;5036401;28;19909;-50
2022/03/19 08:33:59;;;;;;;;;;;;;;;;;;5051796;28;20329;-52
2022/03/19 08:36:24;;;;;;;;;;;;;;;;;;5036502;28;19952;-51
2022/03/19 08:41:33;;;;;;;;;;;;;;;;;;5036382;28;19963;-50
2022/03/19 08:43:58;;;;;;;;;;;;;;;;;;5035717;28;19921;-49
2022/03/19 08:46:23;;;;;;;;;;;;;;;;;;5036254;28;19910;-49
2022/03/19 08:48:48;;;;;;;;;;;;;;;;;;5036405;28;19913;-51
2022/03/19 08:53:59;;;;;;;;;;;;;;;;;;5035995;28;19921;-50
2022/03/19 08:56:24;;;;;;;;;;;;;;;;;;5035700;28;19920;-49
2022/03/19 08:58:49;;;;;;;;;;;;;;;;;;5035954;28;20288;-50
2022/03/19 09:01:14;;;;;;;;;;;;;;;;;;5035816;28;19910;-50
2022/03/19 09:03:40;;;;;;;;;;;;;;;;;;5026218;28;19909;-50
2022/03/19 09:06:05;;;;;;;;;;;;;;;;;;5015838;28;19909;-50
2022/03/19 09:08:30;;;;;;;;;;;;;;;;;;5016108;28;19910;-50
2022/03/19 09:10:55;;;;;;;;;;;;;;;;;;5016091;28;19909;-49
2022/03/19 09:13:20;;;;;;;;;;;;;;;;;;5015948;28;19914;-51
2022/03/19 09:15:45;;;;;;;;;;;;;;;;;;5015972;28;19913;-51
2022/03/19 09:18:10;;;;;;;;;;;;;;;;;;5015522;28;20365;-52
2022/03/19 09:20:36;;;;;;;;;;;;;;;;;;5015474;28;20269;-49
2022/03/19 09:23:02;;;;;;;;;;;;;;;;;;5023195;28;20020;-51
2022/03/19 09:25:27;;;;;;;;;;;;;;;;;;5034838;28;19920;-51
2022/03/19 09:27:52;;;;;;;;;;;;;;;;;;5035478;28;19909;-49
2022/03/19 09:30:17;;;;;;;;;;;;;;;;;;5035458;28;19916;-49
2022/03/19 09:32:42;;;;;;;;;;;;;;;;;;5035205;28;19913;-51
2022/03/19 09:35:08;;;;;;;;;;;;;;;;;;5035275;28;19909;-49
2022/03/19 09:37:33;;;;;;;;;;;;;;;;;;5035641;28;19909;-49
2022/03/19 09:39:58;;;;;;;;;;;;;;;;;;5035198;28;19916;-49
2022/03/19 09:42:24;;;;;;;;;;;;;;;;;;5035340;28;20477;-51
2022/03/19 09:44:49;;;;;;;;;;;;;;;;;;5035123;28;20007;-51
2022/03/19 09:47:14;;;;;;;;;;;;;;;;;;5035026;28;19913;-50
2022/03/19 09:49:39;;;;;;;;;;;;;;;;;;5034585;28;20315;-49
2022/03/19 09:52:04;;;;;;;;;;;;;;;;;;5035145;28;19913;-49
2022/03/19 09:54:30;;;;;;;;;;;;;;;;;;5034166;28;19949;-50
2022/03/19 09:56:55;;;;;;;;;;;;;;;;;;5034112;28;19925;-52
2022/03/19 09:59:22;;;;;;;;;;;;;;;;;;5034954;28;20395;-51
2022/03/19 10:01:47;;;;;;;;;;;;;;;;;;5034976;28;19913;-50
2022/03/19 10:04:15;;;;;;;;;;;;;;;;;;5034754;28;19936;-51
2022/03/19 10:09:24;;;;;;;;;;;;;;;;;;5034942;28;19919;-49
2022/03/19 10:11:49;;;;;;;;;;;;;;;;;;5034928;28;20007;-51
2022/03/19 10:14:14;;;;;;;;;;;;;;;;;;5034782;28;19996;-51
2022/03/19 10:16:39;;;;;;;;;;;;;;;;;;5033720;28;19916;-52
2022/03/19 10:19:04;;;;;;;;;;;;;;;;;;5034642;28;19913;-50
2022/03/19 10:21:29;;;;;;;;;;;;;;;;;;5034620;28;19987;-50
2022/03/19 10:23:58;;;;;;;;;;;;;;;;;;5034246;28;19917;-52
2022/03/19 10:26:24;;;;;;;;;;;;;;;;;;5033690;28;19923;-49
2022/03/19 10:28:49;;;;;;;;;;;;;;;;;;5034194;28;20012;-48
2022/03/19 10:31:14;;;;;;;;;;;;;;;;;;5034434;28;19905;-49
2022/03/19 10:33:39;;;;;;;;;;;;;;;;;;5034537;28;19955;-51
2022/03/19 10:36:05;;;;;;;;;;;;;;;;;;5034461;28;20406;-49
2022/03/19 10:38:30;;;;;;;;;;;;;;;;;;5034540;28;19913;-51
2022/03/19 10:40:55;;;;;;;;;;;;;;;;;;5034516;28;20268;-51
2022/03/19 10:43:22;;;;;;;;;;;;;;;;;;5034718;28;19916;-48
2022/03/19 10:45:48;;;;;;;;;;;;;;;;;;5033247;28;19944;-49
2022/03/19 10:48:13;;;;;;;;;;;;;;;;;;5033802;28;20317;-49
2022/03/19 10:50:38;;;;;;;;;;;;;;;;;;5034186;28;19967;-48
2022/03/19 10:53:03;;;;;;;;;;;;;;;;;;5034452;28;19914;-49
2022/03/19 10:55:28;;;;;;;;;;;;;;;;;;5033919;28;19921;-49
2022/03/19 10:57:54;;;;;;;;;;;;;;;;;;5033974;28;19917;-51
2022/03/19 11:00:19;;;;;;;;;;;;;;;;;;5034438;28;20413;-50
2022/03/19 11:02:45;;;;;;;;;;;;;;;;;;5032161;28;19956;-49
2022/03/19 11:05:10;;;;;;;;;;;;;;;;;;5014347;28;20315;-49
2022/03/19 11:07:35;;;;;;;;;;;;;;;;;;5014532;28;19909;-49
2022/03/19 11:10:01;;;;;;;;;;;;;;;;;;5014399;28;20365;-49
2022/03/19 11:12:26;;;;;;;;;;;;;;;;;;5032886;28;19912;-50
2022/03/19 11:14:51;;;;;;;;;;;;;;;;;;5034146;28;19909;-49
2022/03/19 11:17:25;;;;;;;;;;;;;;;;;;5033778;28;19968;-50
2022/03/19 11:19:50;;;;;;;;;;;;;;;;;;5029067;28;19917;-50
2022/03/19 11:22:17;;;;;;;;;;;;;;;;;;5034105;28;19936;-49
2022/03/19 11:24:42;;;;;;;;;;;;;;;;;;5033924;28;19913;-49
2022/03/19 11:27:07;;;;;;;;;;;;;;;;;;5034040;28;19971;-49
2022/03/19 11:29:32;;;;;;;;;;;;;;;;;;5033978;28;19913;-49
2022/03/19 11:31:58;;;;;;;;;;;;;;;;;;5034082;28;19910;-49
2022/03/19 11:34:23;;;;;;;;;;;;;;;;;;5034038;28;20272;-49
2022/03/19 11:36:48;;;;;;;;;;;;;;;;;;5033931;28;20379;-49
2022/03/19 11:39:13;;;;;;;;;;;;;;;;;;5034000;28;20276;-50
2022/03/19 11:41:39;;;;;;;;;;;;;;;;;;5034001;28;19905;-50
2022/03/19 11:44:04;;;;;;;;;;;;;;;;;;5037400;28;19917;-49
2022/03/19 11:46:29;;;;;;;;;;;;;;;;;;5036941;28;19909;-52
2022/03/19 11:48:54;;;;;;;;;;;;;;;;;;5036839;28;19913;-49
2022/03/19 11:51:19;;;;;;;;;;;;;;;;;;5036812;28;19928;-51
2022/03/19 11:53:44;;;;;;;;;;;;;;;;;;5036954;28;19913;-49
2022/03/19 11:56:13;;;;;;;;;;;;;;;;;;5037028;28;20050;-52
2022/03/19 11:58:38;;;;;;;;;;;;;;;;;;5036861;28;19932;-50
2022/03/19 12:01:04;;;;;;;;;;;;;;;;;;5037311;28;20008;-49
2022/03/19 12:03:29;;;;;;;;;;;;;;;;;;5036711;28;19909;-50
2022/03/19 12:05:54;;;;;;;;;;;;;;;;;;5036967;28;20274;-49
2022/03/19 12:08:19;;;;;;;;;;;;;;;;;;5037106;28;20276;-51
2022/03/19 12:10:45;;;;;;;;;;;;;;;;;;5037004;28;19917;-52
2022/03/19 12:13:10;;;;;;;;;;;;;;;;;;5036846;28;19909;-51
2022/03/19 12:15:35;;;;;;;;;;;;;;;;;;5036918;28;19917;-49
2022/03/19 12:18:00;;;;;;;;;;;;;;;;;;5036630;28;19920;-50
2022/03/19 12:20:25;;;;;;;;;;;;;;;;;;5036881;28;19909;-51
2022/03/19 12:22:50;;;;;;;;;;;;;;;;;;5036339;28;20356;-49
2022/03/19 12:25:18;;;;;;;;;;;;;;;;;;5035951;28;19921;-51
2022/03/19 12:27:45;;;;;;;;;;;;;;;;;;5036093;28;19917;-49
2022/03/19 12:30:10;;;;;;;;;;;;;;;;;;5036493;28;19910;-51
2022/03/19 12:32:38;;;;;;;;;;;;;;;;;;5036619;28;19917;-51
2022/03/19 12:35:03;;;;;;;;;;;;;;;;;;5036486;28;19956;-51
2022/03/19 12:37:28;;;;;;;;;;;;;;;;;;5036453;28;20006;-51
2022/03/19 12:39:53;;;;;;;;;;;;;;;;;;5036089;28;19939;-51
2022/03/19 12:42:18;;;;;;;;;;;;;;;;;;5036515;28;19913;-52
2022/03/19 12:44:43;;;;;;;;;;;;;;;;;;5036233;28;19917;-49
2022/03/19 12:47:09;;;;;;;;;;;;;;;;;;5036246;28;19917;-50
2022/03/19 12:49:34;;;;;;;;;;;;;;;;;;5043235;22;19929;-52
2022/03/19 12:51:59;;;;;;;;;;;;;;;;;;5036435;28;20424;-50
2022/03/19 12:54:28;;;;;;;;;;;;;;;;;;5036516;28;19909;-49
2022/03/19 12:56:53;;;;;;;;;;;;;;;;;;5035357;28;20392;-49
2022/03/19 12:59:18;;;;;;;;;;;;;;;;;;5035847;28;19968;-49
2022/03/19 13:01:43;;;;;;;;;;;;;;;;;;5034812;28;19963;-50
2022/03/19 13:04:09;;;;;;;;;;;;;;;;;;5034402;28;19923;-50
2022/03/19 13:06:36;;;;;;;;;;;;;;;;;;5036546;28;19910;-50
2022/03/19 13:09:02;;;;;;;;;;;;;;;;;;5036767;28;19916;-50
2022/03/19 13:11:27;;;;;;;;;;;;;;;;;;5035512;28;19913;-49
2022/03/19 13:13:52;;;;;;;;;;;;;;;;;;5036834;28;19913;-49
2022/03/19 13:16:17;;;;;;;;;;;;;;;;;;5036187;28;19996;-50
2022/03/19 13:18:42;;;;;;;;;;;;;;;;;;5036373;28;20008;-48
2022/03/19 13:21:08;;;;;;;;;;;;;;;;;;5032511;28;19988;-50
2022/03/19 13:23:33;;;;;;;;;;;;;;;;;;5016213;28;19932;-50
2022/03/19 13:25:58;;;;;;;;;;;;;;;;;;5029823;28;19928;-50
2022/03/19 13:28:23;;;;;;;;;;;;;;;;;;5035548;28;19944;-50
2022/03/19 13:30:49;;;;;;;;;;;;;;;;;;5035313;28;20399;-50
2022/03/19 13:33:15;;;;;;;;;;;;;;;;;;5035515;28;19909;-50
2022/03/19 13:35:42;;;;;;;;;;;;;;;;;;5035425;28;20356;-50
2022/03/19 13:38:07;;;;;;;;;;;;;;;;;;5035103;28;19967;-48
2022/03/19 13:40:32;;;;;;;;;;;;;;;;;;5035463;28;20360;-52
2022/03/19 13:42:57;;;;;;;;;;;;;;;;;;5035356;28;19913;-49
2022/03/19 13:45:22;;;;;;;;;;;;;;;;;;5035190;28;20396;-53
2022/03/19 13:47:50;;;;;;;;;;;;;;;;;;5035125;28;19964;-48
2022/03/19 13:50:21;;;;;;;;;;;;;;;;;;5034971;28;19921;-49
2022/03/19 13:52:46;;;;;;;;;;;;;;;;;;5035016;28;19910;-51
2022/03/19 13:55:11;;;;;;;;;;;;;;;;;;5034723;28;19919;-49
2022/03/19 13:57:36;;;;;;;;;;;;;;;;;;5034172;28;20001;-51
2022/03/19 14:00:01;;;;;;;;;;;;;;;;;;5035025;28;20395;-51
2022/03/19 14:02:26;;;;;;;;;;;;;;;;;;5034863;28;19909;-48
2022/03/19 14:04:52;;;;;;;;;;;;;;;;;;5034407;28;19913;-51
2022/03/19 14:07:17;;;;;;;;;;;;;;;;;;5035030;28;19916;-51
2022/03/19 14:09:42;;;;;;;;;;;;;;;;;;5034869;28;19916;-49
2022/03/19 14:12:07;;;;;;;;;;;;;;;;;;5034828;28;19913;-49
2022/03/19 14:14:32;;;;;;;;;;;;;;;;;;5024088;28;20342;-49
2022/03/19 14:16:58;;;;;;;;;;;;;;;;;;5015079;28;20316;-53
2022/03/19 14:19:23;;;;;;;;;;;;;;;;;;5013683;28;19914;-51
2022/03/19 14:21:48;;;;;;;;;;;;;;;;;;5014912;28;19968;-51
2022/03/19 14:24:13;;;;;;;;;;;;;;;;;;5014617;28;19921;-51
2022/03/19 14:26:39;;;;;;;;;;;;;;;;;;5033266;28;19959;-52
2022/03/19 14:29:06;;;;;;;;;;;;;;;;;;5034638;28;20019;-50
2022/03/19 14:31:31;;;;;;;;;;;;;;;;;;5034655;28;19913;-51
2022/03/19 14:33:56;;;;;;;;;;;;;;;;;;5034506;28;19910;-50
2022/03/19 14:36:22;;;;;;;;;;;;;;;;;;5034494;28;19935;-50
2022/03/19 14:38:49;;;;;;;;;;;;;;;;;;5034589;28;19963;-50
2022/03/19 14:41:14;;;;;;;;;;;;;;;;;;5034305;28;19909;-49
2022/03/19 14:43:39;;;;;;;;;;;;;;;;;;5034337;28;19909;-50
2022/03/19 14:46:04;;;;;;;;;;;;;;;;;;5034474;28;19917;-50
2022/03/19 14:48:29;;;;;;;;;;;;;;;;;;5034418;28;20360;-49
2022/03/19 14:50:54;;;;;;;;;;;;;;;;;;5034002;28;19944;-51
2022/03/19 14:53:19;;;;;;;;;;;;;;;;;;5034499;28;19936;-50
2022/03/19 14:55:45;;;;;;;;;;;;;;;;;;5033535;28;19913;-51
2022/03/19 14:58:10;;;;;;;;;;;;;;;;;;5034077;28;19917;-49
2022/03/19 15:00:35;;;;;;;;;;;;;;;;;;5034293;28;19945;-52
2022/03/19 15:03:00;;;;;;;;;;;;;;;;;;5034295;28;19916;-49
2022/03/19 15:05:25;;;;;;;;;;;;;;;;;;5034132;28;19913;-50
2022/03/19 15:07:50;;;;;;;;;;;;;;;;;;5033999;28;20352;-51
2022/03/19 15:10:16;;;;;;;;;;;;;;;;;;5034364;28;19932;-50
2022/03/19 15:12:41;;;;;;;;;;;;;;;;;;5034054;28;19916;-51
2022/03/19 15:15:06;;;;;;;;;;;;;;;;;;5034087;28;19909;-49
2022/03/19 15:17:32;;;;;;;;;;;;;;;;;;5035574;28;19917;-50
2022/03/19 15:19:57;;;;;;;;;;;;;;;;;;5037886;28;19967;-49
2022/03/19 15:22:22;;;;;;;;;;;;;;;;;;5037799;28;19932;-51
2022/03/19 15:24:47;;;;;;;;;;;;;;;;;;5036614;28;19939;-50
2022/03/19 15:27:12;;;;;;;;;;;;;;;;;;5037036;28;20368;-50
2022/03/19 15:29:37;;;;;;;;;;;;;;;;;;5037936;28;19915;-49
2022/03/19 15:32:02;;;;;;;;;;;;;;;;;;5037490;28;19956;-50
2022/03/19 15:34:28;;;;;;;;;;;;;;;;;;5035705;28;19917;-50
2022/03/19 15:36:53;;;;;;;;;;;;;;;;;;5037567;28;20019;-51
2022/03/19 15:39:18;;;;;;;;;;;;;;;;;;5037414;28;19916;-53
2022/03/19 15:41:44;;;;;;;;;;;;;;;;;;5037861;28;19909;-52
2022/03/19 15:44:09;;;;;;;;;;;;;;;;;;5037326;28;20009;-52
2022/03/19 15:46:34;;;;;;;;;;;;;;;;;;5037544;28;19916;-50
2022/03/19 15:49:02;;;;;;;;;;;;;;;;;;5037193;28;20434;-53
2022/03/19 15:51:27;;;;;;;;;;;;;;;;;;5036944;28;19917;-52
2022/03/19 15:53:53;;;;;;;;;;;;;;;;;;5037419;28;19967;-51
2022/03/19 15:56:18;;;;;;;;;;;;;;;;;;5037072;28;20050;-50
2022/03/19 15:58:43;;;;;;;;;;;;;;;;;;5037388;28;19913;-51
2022/03/19 16:01:08;;;;;;;;;;;;;;;;;;5037366;28;19909;-50
2022/03/19 16:03:33;;;;;;;;;;;;;;;;;;5028509;28;19910;-50
2022/03/19 16:05:58;;;;;;;;;;;;;;;;;;5017318;28;20422;-50
2022/03/19 16:08:23;;;;;;;;;;;;;;;;;;5017362;28;19909;-50
2022/03/19 16:10:48;;;;;;;;;;;;;;;;;;5017187;28;20276;-50
2022/03/19 16:13:14;;;;;;;;;;;;;;;;;;5017172;28;19932;-50
2022/03/19 16:15:39;;;;;;;;;;;;;;;;;;5017125;28;19911;-52
2022/03/19 16:18:04;;;;;;;;;;;;;;;;;;5016772;28;19910;-50
2022/03/19 16:20:29;;;;;;;;;;;;;;;;;;5032809;28;19913;-50
2022/03/19 16:22:54;;;;;;;;;;;;;;;;;;5036818;28;19913;-50
2022/03/19 16:25:19;;;;;;;;;;;;;;;;;;5024112;28;19917;-49
2022/03/19 16:27:44;;;;;;;;;;;;;;;;;;5035681;28;20284;-49
2022/03/19 16:30:10;;;;;;;;;;;;;;;;;;5036979;28;19909;-50
2022/03/19 16:32:35;;;;;;;;;;;;;;;;;;5036690;28;20328;-50
2022/03/19 16:35:00;;;;;;;;;;;;;;;;;;5036716;28;19909;-52
2022/03/19 16:37:29;;;;;;;;;;;;;;;;;;5036462;28;20272;-50
2022/03/19 16:39:54;;;;;;;;;;;;;;;;;;5036539;28;19916;-50
2022/03/19 16:42:19;;;;;;;;;;;;;;;;;;5036458;28;19906;-49
2022/03/19 16:44:45;;;;;;;;;;;;;;;;;;5036429;28;19913;-49
2022/03/19 16:47:10;;;;;;;;;;;;;;;;;;5036767;28;19909;-48
2022/03/19 16:49:35;;;;;;;;;;;;;;;;;;5035880;28;19917;-49
2022/03/19 16:52:00;;;;;;;;;;;;;;;;;;5037122;28;20027;-49